sensor_id;sensor_type;location;lat;lon;timestamp;P1;durP1;ratioP1;P2;durP2;ratioP2
30888;SDS011;51092;50.874;7.024;2022-07-29T00:00:57;5.82;;;2.95;;
30888;SDS011;51092;50.874;7.024;2022-07-29T00:01:59;7.55;;;1.88;;
30888;SDS011;51092;50.874;7.024;2022-07-29T00:03:02;6.63;;;1.67;;
30888;SDS011;51092;50.874;7.024;2022-07-29T00:04:03;7.53;;;1.90;;
30888;SDS011;51092;50.874;7.024;2022-07-29T00:05:07;9.27;;;2.25;;
30888;SDS011;51092;50.874;7.024;2022-07-29T00:06:10;5.97;;;1.60;;
30888;SDS011;51092;50.874;7.024;2022-07-29T00:07:13;4.90;;;1.80;;
30888;SDS011;51092;50.874;7.024;2022-07-29T00:08:14;8.13;;;1.70;;
30888;SDS011;51092;50.874;7.024;2022-07-29T00:09:17;6.40;;;1.50;;
30888;SDS011;51092;50.874;7.024;2022-07-29T00:10:18;2.85;;;1.38;;
30888;SDS011;51092;50.874;7.024;2022-07-29T00:11:22;4.43;;;1.23;;
30888;SDS011;51092;50.874;7.024;2022-07-29T00:12:24;4.28;;;1.55;;
30888;SDS011;51092;50.874;7.024;2022-07-29T00:13:27;14.88;;;2.25;;
30888;SDS011;51092;50.874;7.024;2022-07-29T00:14:28;2.95;;;1.58;;
30888;SDS011;51092;50.874;7.024;2022-07-29T00:15:31;4.45;;;1.55;;
30888;SDS011;51092;50.874;7.024;2022-07-29T00:16:32;8.02;;;1.98;;
30888;SDS011;51092;50.874;7.024;2022-07-29T00:17:35;8.20;;;1.70;;
30888;SDS011;51092;50.874;7.024;2022-07-29T00:18:36;5.32;;;1.65;;
30888;SDS011;51092;50.874;7.024;2022-07-29T00:19:40;3.83;;;1.80;;
30888;SDS011;51092;50.874;7.024;2022-07-29T00:20:41;5.55;;;1.55;;
30888;SDS011;51092;50.874;7.024;2022-07-29T00:21:44;6.80;;;2.25;;
30888;SDS011;51092;50.874;7.024;2022-07-29T00:22:46;4.88;;;2.10;;
30888;SDS011;51092;50.874;7.024;2022-07-29T00:23:48;4.25;;;1.73;;
30888;SDS011;51092;50.874;7.024;2022-07-29T00:24:50;8.15;;;1.70;;
30888;SDS011;51092;50.874;7.024;2022-07-29T00:25:52;9.02;;;1.75;;
30888;SDS011;51092;50.874;7.024;2022-07-29T00:26:55;5.20;;;1.48;;
30888;SDS011;51092;50.874;7.024;2022-07-29T00:27:57;4.75;;;2.05;;
30888;SDS011;51092;50.874;7.024;2022-07-29T00:29:00;4.72;;;1.70;;
30888;SDS011;51092;50.874;7.024;2022-07-29T00:30:02;7.60;;;1.63;;
30888;SDS011;51092;50.874;7.024;2022-07-29T00:31:06;9.13;;;1.85;;
30888;SDS011;51092;50.874;7.024;2022-07-29T00:32:08;5.95;;;1.70;;
30888;SDS011;51092;50.874;7.024;2022-07-29T00:33:11;4.80;;;1.45;;
30888;SDS011;51092;50.874;7.024;2022-07-29T00:34:13;6.05;;;1.80;;
30888;SDS011;51092;50.874;7.024;2022-07-29T00:35:30;6.20;;;2.17;;
30888;SDS011;51092;50.874;7.024;2022-07-29T00:36:49;5.00;;;2.13;;
30888;SDS011;51092;50.874;7.024;2022-07-29T00:37:51;2.28;;;1.65;;
30888;SDS011;51092;50.874;7.024;2022-07-29T00:38:53;7.13;;;1.67;;
30888;SDS011;51092;50.874;7.024;2022-07-29T00:39:55;4.93;;;1.98;;
30888;SDS011;51092;50.874;7.024;2022-07-29T00:40:57;4.35;;;1.85;;
30888;SDS011;51092;50.874;7.024;2022-07-29T00:42:02;6.10;;;1.48;;
30888;SDS011;51092;50.874;7.024;2022-07-29T00:43:04;8.23;;;1.75;;
30888;SDS011;51092;50.874;7.024;2022-07-29T00:44:07;7.05;;;2.05;;
30888;SDS011;51092;50.874;7.024;2022-07-29T00:45:09;9.45;;;2.05;;
30888;SDS011;51092;50.874;7.024;2022-07-29T00:46:12;6.45;;;2.35;;
30888;SDS011;51092;50.874;7.024;2022-07-29T00:47:13;6.43;;;1.70;;
30888;SDS011;51092;50.874;7.024;2022-07-29T00:48:16;4.78;;;1.55;;
30888;SDS011;51092;50.874;7.024;2022-07-29T00:49:18;6.43;;;2.00;;
30888;SDS011;51092;50.874;7.024;2022-07-29T00:50:20;3.72;;;1.65;;
30888;SDS011;51092;50.874;7.024;2022-07-29T00:51:22;6.60;;;1.70;;
30888;SDS011;51092;50.874;7.024;2022-07-29T00:52:26;4.10;;;1.60;;
30888;SDS011;51092;50.874;7.024;2022-07-29T00:53:29;3.33;;;1.60;;
30888;SDS011;51092;50.874;7.024;2022-07-29T00:54:32;8.85;;;2.63;;
30888;SDS011;51092;50.874;7.024;2022-07-29T00:55:34;5.00;;;1.83;;
30888;SDS011;51092;50.874;7.024;2022-07-29T00:56:37;8.43;;;1.90;;
30888;SDS011;51092;50.874;7.024;2022-07-29T00:57:40;7.07;;;1.80;;
30888;SDS011;51092;50.874;7.024;2022-07-29T00:58:44;11.85;;;1.75;;
30888;SDS011;51092;50.874;7.024;2022-07-29T00:59:48;6.35;;;1.33;;
30888;SDS011;51092;50.874;7.024;2022-07-29T01:00:50;17.13;;;1.90;;
30888;SDS011;51092;50.874;7.024;2022-07-29T01:01:53;4.63;;;1.70;;
30888;SDS011;51092;50.874;7.024;2022-07-29T01:02:54;6.25;;;1.98;;
30888;SDS011;51092;50.874;7.024;2022-07-29T01:03:57;6.10;;;2.03;;
30888;SDS011;51092;50.874;7.024;2022-07-29T01:04:58;5.78;;;1.90;;
30888;SDS011;51092;50.874;7.024;2022-07-29T01:06:02;5.05;;;2.15;;
30888;SDS011;51092;50.874;7.024;2022-07-29T01:07:04;10.93;;;2.45;;
30888;SDS011;51092;50.874;7.024;2022-07-29T01:08:07;6.90;;;1.80;;
30888;SDS011;51092;50.874;7.024;2022-07-29T01:09:10;4.97;;;2.03;;
30888;SDS011;51092;50.874;7.024;2022-07-29T01:10:13;10.05;;;1.85;;
30888;SDS011;51092;50.874;7.024;2022-07-29T01:11:17;4.80;;;1.73;;
30888;SDS011;51092;50.874;7.024;2022-07-29T01:12:21;4.43;;;1.92;;
30888;SDS011;51092;50.874;7.024;2022-07-29T01:13:27;7.63;;;2.10;;
30888;SDS011;51092;50.874;7.024;2022-07-29T01:14:31;7.75;;;2.28;;
30888;SDS011;51092;50.874;7.024;2022-07-29T01:15:33;11.05;;;1.83;;
30888;SDS011;51092;50.874;7.024;2022-07-29T01:16:42;8.05;;;1.58;;
30888;SDS011;51092;50.874;7.024;2022-07-29T01:17:52;3.92;;;1.58;;
30888;SDS011;51092;50.874;7.024;2022-07-29T01:19:05;5.15;;;1.60;;
30888;SDS011;51092;50.874;7.024;2022-07-29T01:20:18;5.47;;;1.63;;
30888;SDS011;51092;50.874;7.024;2022-07-29T01:21:35;5.35;;;1.90;;
30888;SDS011;51092;50.874;7.024;2022-07-29T01:22:53;6.20;;;1.75;;
30888;SDS011;51092;50.874;7.024;2022-07-29T01:24:14;4.03;;;1.83;;
30888;SDS011;51092;50.874;7.024;2022-07-29T01:25:49;6.57;;;1.75;;
30888;SDS011;51092;50.874;7.024;2022-07-29T01:27:16;7.43;;;1.70;;
30888;SDS011;51092;50.874;7.024;2022-07-29T01:28:39;4.25;;;1.80;;
30888;SDS011;51092;50.874;7.024;2022-07-29T01:29:52;3.83;;;1.90;;
30888;SDS011;51092;50.874;7.024;2022-07-29T01:30:58;10.77;;;1.70;;
30888;SDS011;51092;50.874;7.024;2022-07-29T01:32:01;6.97;;;2.00;;
30888;SDS011;51092;50.874;7.024;2022-07-29T01:33:10;7.25;;;1.80;;
30888;SDS011;51092;50.874;7.024;2022-07-29T01:34:35;3.92;;;1.63;;
30888;SDS011;51092;50.874;7.024;2022-07-29T01:35:42;5.55;;;1.73;;
30888;SDS011;51092;50.874;7.024;2022-07-29T01:36:47;2.72;;;1.23;;
30888;SDS011;51092;50.874;7.024;2022-07-29T01:37:52;7.88;;;1.63;;
30888;SDS011;51092;50.874;7.024;2022-07-29T01:39:06;5.78;;;1.70;;
30888;SDS011;51092;50.874;7.024;2022-07-29T01:40:11;5.47;;;1.88;;
30888;SDS011;51092;50.874;7.024;2022-07-29T01:41:21;6.78;;;1.70;;
30888;SDS011;51092;50.874;7.024;2022-07-29T01:42:26;5.75;;;1.73;;
30888;SDS011;51092;50.874;7.024;2022-07-29T01:43:35;3.13;;;1.45;;
30888;SDS011;51092;50.874;7.024;2022-07-29T01:44:45;2.45;;;1.60;;
30888;SDS011;51092;50.874;7.024;2022-07-29T01:45:52;5.63;;;1.55;;
30888;SDS011;51092;50.874;7.024;2022-07-29T01:47:02;7.80;;;1.95;;
30888;SDS011;51092;50.874;7.024;2022-07-29T01:48:13;6.45;;;1.75;;
30888;SDS011;51092;50.874;7.024;2022-07-29T01:49:18;5.88;;;1.58;;
30888;SDS011;51092;50.874;7.024;2022-07-29T01:50:26;8.45;;;2.05;;
30888;SDS011;51092;50.874;7.024;2022-07-29T01:51:35;7.45;;;2.15;;
30888;SDS011;51092;50.874;7.024;2022-07-29T01:52:44;7.78;;;1.88;;
30888;SDS011;51092;50.874;7.024;2022-07-29T01:53:52;4.60;;;2.00;;
30888;SDS011;51092;50.874;7.024;2022-07-29T01:55:01;7.03;;;1.90;;
30888;SDS011;51092;50.874;7.024;2022-07-29T01:56:08;5.82;;;1.73;;
30888;SDS011;51092;50.874;7.024;2022-07-29T01:57:13;3.63;;;1.95;;
30888;SDS011;51092;50.874;7.024;2022-07-29T01:58:18;9.23;;;2.30;;
30888;SDS011;51092;50.874;7.024;2022-07-29T01:59:22;10.35;;;1.77;;
30888;SDS011;51092;50.874;7.024;2022-07-29T02:00:27;5.07;;;2.42;;
30888;SDS011;51092;50.874;7.024;2022-07-29T02:01:32;2.45;;;1.63;;
30888;SDS011;51092;50.874;7.024;2022-07-29T02:02:35;3.55;;;1.67;;
30888;SDS011;51092;50.874;7.024;2022-07-29T02:03:41;8.02;;;1.50;;
30888;SDS011;51092;50.874;7.024;2022-07-29T02:04:44;7.15;;;1.73;;
30888;SDS011;51092;50.874;7.024;2022-07-29T02:05:50;6.70;;;2.03;;
30888;SDS011;51092;50.874;7.024;2022-07-29T02:06:54;6.00;;;2.08;;
30888;SDS011;51092;50.874;7.024;2022-07-29T02:08:00;9.05;;;1.73;;
30888;SDS011;51092;50.874;7.024;2022-07-29T02:09:04;6.90;;;2.28;;
30888;SDS011;51092;50.874;7.024;2022-07-29T02:10:09;3.72;;;1.70;;
30888;SDS011;51092;50.874;7.024;2022-07-29T02:11:12;3.47;;;1.70;;
30888;SDS011;51092;50.874;7.024;2022-07-29T02:12:15;3.70;;;1.40;;
30888;SDS011;51092;50.874;7.024;2022-07-29T02:13:18;4.93;;;1.70;;
30888;SDS011;51092;50.874;7.024;2022-07-29T02:14:24;5.80;;;1.67;;
30888;SDS011;51092;50.874;7.024;2022-07-29T02:15:31;4.68;;;1.30;;
30888;SDS011;51092;50.874;7.024;2022-07-29T02:16:35;3.75;;;1.63;;
30888;SDS011;51092;50.874;7.024;2022-07-29T02:17:40;8.50;;;2.10;;
30888;SDS011;51092;50.874;7.024;2022-07-29T02:18:44;2.42;;;1.35;;
30888;SDS011;51092;50.874;7.024;2022-07-29T02:19:47;4.57;;;1.80;;
30888;SDS011;51092;50.874;7.024;2022-07-29T02:20:52;6.50;;;2.05;;
30888;SDS011;51092;50.874;7.024;2022-07-29T02:21:56;7.88;;;1.98;;
30888;SDS011;51092;50.874;7.024;2022-07-29T02:23:02;9.77;;;3.60;;
30888;SDS011;51092;50.874;7.024;2022-07-29T02:24:05;5.55;;;2.40;;
30888;SDS011;51092;50.874;7.024;2022-07-29T02:25:09;3.47;;;1.75;;
30888;SDS011;51092;50.874;7.024;2022-07-29T02:26:11;5.70;;;1.95;;
30888;SDS011;51092;50.874;7.024;2022-07-29T02:27:14;5.45;;;2.28;;
30888;SDS011;51092;50.874;7.024;2022-07-29T02:28:19;3.92;;;1.70;;
30888;SDS011;51092;50.874;7.024;2022-07-29T02:29:25;6.57;;;1.85;;
30888;SDS011;51092;50.874;7.024;2022-07-29T02:30:28;5.60;;;2.00;;
30888;SDS011;51092;50.874;7.024;2022-07-29T02:31:34;3.17;;;1.77;;
30888;SDS011;51092;50.874;7.024;2022-07-29T02:32:37;5.22;;;1.95;;
30888;SDS011;51092;50.874;7.024;2022-07-29T02:33:40;4.15;;;1.95;;
30888;SDS011;51092;50.874;7.024;2022-07-29T02:34:43;4.70;;;1.80;;
30888;SDS011;51092;50.874;7.024;2022-07-29T02:35:46;8.88;;;2.50;;
30888;SDS011;51092;50.874;7.024;2022-07-29T02:36:49;7.00;;;2.10;;
30888;SDS011;51092;50.874;7.024;2022-07-29T02:37:52;7.95;;;1.83;;
30888;SDS011;51092;50.874;7.024;2022-07-29T02:39:09;4.03;;;1.77;;
30888;SDS011;51092;50.874;7.024;2022-07-29T02:40:13;4.85;;;2.15;;
30888;SDS011;51092;50.874;7.024;2022-07-29T02:41:17;6.40;;;1.80;;
30888;SDS011;51092;50.874;7.024;2022-07-29T02:42:24;7.38;;;2.35;;
30888;SDS011;51092;50.874;7.024;2022-07-29T02:43:28;8.45;;;1.98;;
30888;SDS011;51092;50.874;7.024;2022-07-29T02:44:33;6.82;;;1.65;;
30888;SDS011;51092;50.874;7.024;2022-07-29T02:45:37;6.55;;;1.63;;
30888;SDS011;51092;50.874;7.024;2022-07-29T02:46:41;7.78;;;2.13;;
30888;SDS011;51092;50.874;7.024;2022-07-29T02:47:46;3.45;;;1.92;;
30888;SDS011;51092;50.874;7.024;2022-07-29T02:48:51;4.10;;;1.40;;
30888;SDS011;51092;50.874;7.024;2022-07-29T02:50:00;3.63;;;2.25;;
30888;SDS011;51092;50.874;7.024;2022-07-29T02:51:05;3.53;;;1.48;;
30888;SDS011;51092;50.874;7.024;2022-07-29T02:52:16;3.88;;;1.77;;
30888;SDS011;51092;50.874;7.024;2022-07-29T02:53:22;6.60;;;2.58;;
30888;SDS011;51092;50.874;7.024;2022-07-29T02:54:26;4.35;;;1.88;;
30888;SDS011;51092;50.874;7.024;2022-07-29T02:55:36;5.18;;;1.60;;
30888;SDS011;51092;50.874;7.024;2022-07-29T02:56:41;5.47;;;1.67;;
30888;SDS011;51092;50.874;7.024;2022-07-29T02:57:46;3.72;;;1.60;;
30888;SDS011;51092;50.874;7.024;2022-07-29T02:58:53;4.40;;;2.08;;
30888;SDS011;51092;50.874;7.024;2022-07-29T02:59:58;6.15;;;1.60;;
30888;SDS011;51092;50.874;7.024;2022-07-29T03:01:07;5.45;;;1.83;;
30888;SDS011;51092;50.874;7.024;2022-07-29T03:02:13;4.40;;;1.85;;
30888;SDS011;51092;50.874;7.024;2022-07-29T03:03:17;5.68;;;1.60;;
30888;SDS011;51092;50.874;7.024;2022-07-29T03:04:20;5.97;;;2.13;;
30888;SDS011;51092;50.874;7.024;2022-07-29T03:05:24;10.90;;;2.03;;
30888;SDS011;51092;50.874;7.024;2022-07-29T03:06:28;10.18;;;2.30;;
30888;SDS011;51092;50.874;7.024;2022-07-29T03:07:31;4.45;;;2.03;;
30888;SDS011;51092;50.874;7.024;2022-07-29T03:08:34;4.15;;;2.03;;
30888;SDS011;51092;50.874;7.024;2022-07-29T03:09:36;4.70;;;1.92;;
30888;SDS011;51092;50.874;7.024;2022-07-29T03:10:39;5.15;;;1.95;;
30888;SDS011;51092;50.874;7.024;2022-07-29T03:11:42;5.35;;;2.38;;
30888;SDS011;51092;50.874;7.024;2022-07-29T03:12:46;4.32;;;2.15;;
30888;SDS011;51092;50.874;7.024;2022-07-29T03:13:48;6.15;;;2.40;;
30888;SDS011;51092;50.874;7.024;2022-07-29T03:14:52;4.13;;;2.28;;
30888;SDS011;51092;50.874;7.024;2022-07-29T03:15:54;3.67;;;1.90;;
30888;SDS011;51092;50.874;7.024;2022-07-29T03:16:59;2.90;;;1.75;;
30888;SDS011;51092;50.874;7.024;2022-07-29T03:18:01;7.25;;;2.28;;
30888;SDS011;51092;50.874;7.024;2022-07-29T03:19:03;4.40;;;1.90;;
30888;SDS011;51092;50.874;7.024;2022-07-29T03:20:06;7.20;;;2.22;;
30888;SDS011;51092;50.874;7.024;2022-07-29T03:21:09;4.88;;;1.90;;
30888;SDS011;51092;50.874;7.024;2022-07-29T03:22:12;7.55;;;2.00;;
30888;SDS011;51092;50.874;7.024;2022-07-29T03:23:18;4.07;;;2.17;;
30888;SDS011;51092;50.874;7.024;2022-07-29T03:24:25;7.28;;;3.35;;
30888;SDS011;51092;50.874;7.024;2022-07-29T03:25:31;5.05;;;1.85;;
30888;SDS011;51092;50.874;7.024;2022-07-29T03:26:33;7.00;;;3.15;;
30888;SDS011;51092;50.874;7.024;2022-07-29T03:27:36;5.05;;;2.30;;
30888;SDS011;51092;50.874;7.024;2022-07-29T03:28:38;7.47;;;2.22;;
30888;SDS011;51092;50.874;7.024;2022-07-29T03:29:40;7.53;;;2.63;;
30888;SDS011;51092;50.874;7.024;2022-07-29T03:30:42;9.32;;;2.47;;
30888;SDS011;51092;50.874;7.024;2022-07-29T03:31:44;4.88;;;2.45;;
30888;SDS011;51092;50.874;7.024;2022-07-29T03:32:48;6.45;;;2.80;;
30888;SDS011;51092;50.874;7.024;2022-07-29T03:33:51;9.07;;;3.17;;
30888;SDS011;51092;50.874;7.024;2022-07-29T03:34:52;8.40;;;2.70;;
30888;SDS011;51092;50.874;7.024;2022-07-29T03:35:55;7.07;;;2.88;;
30888;SDS011;51092;50.874;7.024;2022-07-29T03:36:57;5.60;;;2.60;;
30888;SDS011;51092;50.874;7.024;2022-07-29T03:38:00;7.85;;;2.50;;
30888;SDS011;51092;50.874;7.024;2022-07-29T03:39:01;4.93;;;2.45;;
30888;SDS011;51092;50.874;7.024;2022-07-29T03:40:06;6.65;;;2.35;;
30888;SDS011;51092;50.874;7.024;2022-07-29T03:41:10;7.75;;;2.75;;
30888;SDS011;51092;50.874;7.024;2022-07-29T03:42:15;5.07;;;2.42;;
30888;SDS011;51092;50.874;7.024;2022-07-29T03:43:19;3.88;;;2.38;;
30888;SDS011;51092;50.874;7.024;2022-07-29T03:44:23;6.90;;;2.63;;
30888;SDS011;51092;50.874;7.024;2022-07-29T03:45:28;7.43;;;2.55;;
30888;SDS011;51092;50.874;7.024;2022-07-29T03:46:32;7.55;;;2.58;;
30888;SDS011;51092;50.874;7.024;2022-07-29T03:47:37;7.80;;;2.88;;
30888;SDS011;51092;50.874;7.024;2022-07-29T03:48:46;9.30;;;3.53;;
30888;SDS011;51092;50.874;7.024;2022-07-29T03:49:52;5.88;;;2.67;;
30888;SDS011;51092;50.874;7.024;2022-07-29T03:50:58;7.35;;;2.92;;
30888;SDS011;51092;50.874;7.024;2022-07-29T03:52:00;8.32;;;2.58;;
30888;SDS011;51092;50.874;7.024;2022-07-29T03:53:02;8.45;;;3.00;;
30888;SDS011;51092;50.874;7.024;2022-07-29T03:54:04;7.45;;;3.33;;
30888;SDS011;51092;50.874;7.024;2022-07-29T03:55:08;6.18;;;2.97;;
30888;SDS011;51092;50.874;7.024;2022-07-29T03:56:10;7.38;;;3.13;;
30888;SDS011;51092;50.874;7.024;2022-07-29T03:57:17;7.10;;;2.65;;
30888;SDS011;51092;50.874;7.024;2022-07-29T03:58:21;6.10;;;3.03;;
30888;SDS011;51092;50.874;7.024;2022-07-29T03:59:25;6.40;;;2.78;;
30888;SDS011;51092;50.874;7.024;2022-07-29T04:00:27;6.20;;;2.88;;
30888;SDS011;51092;50.874;7.024;2022-07-29T04:01:32;7.65;;;3.42;;
30888;SDS011;51092;50.874;7.024;2022-07-29T04:02:35;8.30;;;2.80;;
30888;SDS011;51092;50.874;7.024;2022-07-29T04:03:39;6.80;;;2.63;;
30888;SDS011;51092;50.874;7.024;2022-07-29T04:04:41;10.50;;;3.35;;
30888;SDS011;51092;50.874;7.024;2022-07-29T04:05:43;6.63;;;2.75;;
30888;SDS011;51092;50.874;7.024;2022-07-29T04:06:45;7.35;;;2.85;;
30888;SDS011;51092;50.874;7.024;2022-07-29T04:07:48;8.93;;;3.10;;
30888;SDS011;51092;50.874;7.024;2022-07-29T04:08:49;5.22;;;2.65;;
30888;SDS011;51092;50.874;7.024;2022-07-29T04:09:52;8.43;;;2.70;;
30888;SDS011;51092;50.874;7.024;2022-07-29T04:10:54;11.23;;;2.80;;
30888;SDS011;51092;50.874;7.024;2022-07-29T04:11:56;8.93;;;2.80;;
30888;SDS011;51092;50.874;7.024;2022-07-29T04:12:59;7.78;;;2.35;;
30888;SDS011;51092;50.874;7.024;2022-07-29T04:14:00;12.10;;;2.78;;
30888;SDS011;51092;50.874;7.024;2022-07-29T04:15:03;7.93;;;2.75;;
30888;SDS011;51092;50.874;7.024;2022-07-29T04:16:05;10.95;;;2.78;;
30888;SDS011;51092;50.874;7.024;2022-07-29T04:17:08;10.40;;;2.70;;
30888;SDS011;51092;50.874;7.024;2022-07-29T04:18:10;8.48;;;2.95;;
30888;SDS011;51092;50.874;7.024;2022-07-29T04:19:12;7.97;;;2.80;;
30888;SDS011;51092;50.874;7.024;2022-07-29T04:20:15;7.00;;;2.72;;
30888;SDS011;51092;50.874;7.024;2022-07-29T04:21:18;5.53;;;2.90;;
30888;SDS011;51092;50.874;7.024;2022-07-29T04:22:19;6.18;;;3.00;;
30888;SDS011;51092;50.874;7.024;2022-07-29T04:23:22;11.93;;;3.20;;
30888;SDS011;51092;50.874;7.024;2022-07-29T04:24:23;6.65;;;2.83;;
30888;SDS011;51092;50.874;7.024;2022-07-29T04:25:26;11.10;;;2.97;;
30888;SDS011;51092;50.874;7.024;2022-07-29T04:26:27;6.32;;;2.22;;
30888;SDS011;51092;50.874;7.024;2022-07-29T04:27:33;7.80;;;2.38;;
30888;SDS011;51092;50.874;7.024;2022-07-29T04:28:34;7.00;;;2.45;;
30888;SDS011;51092;50.874;7.024;2022-07-29T04:29:39;9.23;;;3.05;;
30888;SDS011;51092;50.874;7.024;2022-07-29T04:30:40;11.13;;;3.10;;
30888;SDS011;51092;50.874;7.024;2022-07-29T04:31:43;13.27;;;3.10;;
30888;SDS011;51092;50.874;7.024;2022-07-29T04:32:44;12.50;;;3.20;;
30888;SDS011;51092;50.874;7.024;2022-07-29T04:33:47;8.48;;;2.38;;
30888;SDS011;51092;50.874;7.024;2022-07-29T04:34:48;9.00;;;2.40;;
30888;SDS011;51092;50.874;7.024;2022-07-29T04:35:52;10.70;;;3.08;;
30888;SDS011;51092;50.874;7.024;2022-07-29T04:36:54;10.52;;;2.22;;
30888;SDS011;51092;50.874;7.024;2022-07-29T04:37:57;7.70;;;3.13;;
30888;SDS011;51092;50.874;7.024;2022-07-29T04:38:58;9.85;;;2.92;;
30888;SDS011;51092;50.874;7.024;2022-07-29T04:40:02;4.63;;;2.42;;
30888;SDS011;51092;50.874;7.024;2022-07-29T04:41:04;10.02;;;2.15;;
30888;SDS011;51092;50.874;7.024;2022-07-29T04:42:07;11.60;;;2.40;;
30888;SDS011;51092;50.874;7.024;2022-07-29T04:43:09;6.90;;;2.63;;
30888;SDS011;51092;50.874;7.024;2022-07-29T04:44:11;7.22;;;2.35;;
30888;SDS011;51092;50.874;7.024;2022-07-29T04:45:13;8.73;;;2.65;;
30888;SDS011;51092;50.874;7.024;2022-07-29T04:46:16;5.60;;;2.70;;
30888;SDS011;51092;50.874;7.024;2022-07-29T04:47:17;10.65;;;3.00;;
30888;SDS011;51092;50.874;7.024;2022-07-29T04:48:20;9.38;;;2.92;;
30888;SDS011;51092;50.874;7.024;2022-07-29T04:49:22;19.92;;;3.15;;
30888;SDS011;51092;50.874;7.024;2022-07-29T04:50:24;8.00;;;2.95;;
30888;SDS011;51092;50.874;7.024;2022-07-29T04:51:27;7.00;;;2.88;;
30888;SDS011;51092;50.874;7.024;2022-07-29T04:52:30;9.38;;;3.25;;
30888;SDS011;51092;50.874;7.024;2022-07-29T04:53:31;10.13;;;2.92;;
30888;SDS011;51092;50.874;7.024;2022-07-29T04:54:34;9.23;;;3.10;;
30888;SDS011;51092;50.874;7.024;2022-07-29T04:55:35;10.27;;;2.72;;
30888;SDS011;51092;50.874;7.024;2022-07-29T04:56:38;9.90;;;3.50;;
30888;SDS011;51092;50.874;7.024;2022-07-29T04:57:39;14.25;;;2.92;;
30888;SDS011;51092;50.874;7.024;2022-07-29T04:58:42;9.45;;;2.60;;
30888;SDS011;51092;50.874;7.024;2022-07-29T04:59:43;12.75;;;3.20;;
30888;SDS011;51092;50.874;7.024;2022-07-29T05:00:46;9.52;;;2.72;;
30888;SDS011;51092;50.874;7.024;2022-07-29T05:01:48;12.55;;;3.15;;
30888;SDS011;51092;50.874;7.024;2022-07-29T05:02:50;9.63;;;3.00;;
30888;SDS011;51092;50.874;7.024;2022-07-29T05:03:52;8.23;;;2.85;;
30888;SDS011;51092;50.874;7.024;2022-07-29T05:04:53;11.95;;;3.60;;
30888;SDS011;51092;50.874;7.024;2022-07-29T05:05:56;9.98;;;2.83;;
30888;SDS011;51092;50.874;7.024;2022-07-29T05:07:00;11.38;;;2.60;;
30888;SDS011;51092;50.874;7.024;2022-07-29T05:08:01;8.98;;;2.85;;
30888;SDS011;51092;50.874;7.024;2022-07-29T05:09:04;7.57;;;2.90;;
30888;SDS011;51092;50.874;7.024;2022-07-29T05:10:06;12.85;;;3.10;;
30888;SDS011;51092;50.874;7.024;2022-07-29T05:11:09;9.27;;;3.17;;
30888;SDS011;51092;50.874;7.024;2022-07-29T05:12:11;9.05;;;2.63;;
30888;SDS011;51092;50.874;7.024;2022-07-29T05:13:13;7.53;;;2.35;;
30888;SDS011;51092;50.874;7.024;2022-07-29T05:14:15;15.98;;;2.97;;
30888;SDS011;51092;50.874;7.024;2022-07-29T05:15:17;9.10;;;2.60;;
30888;SDS011;51092;50.874;7.024;2022-07-29T05:16:19;7.28;;;2.60;;
30888;SDS011;51092;50.874;7.024;2022-07-29T05:17:21;9.00;;;3.28;;
30888;SDS011;51092;50.874;7.024;2022-07-29T05:18:23;8.15;;;3.03;;
30888;SDS011;51092;50.874;7.024;2022-07-29T05:19:25;12.30;;;2.75;;
30888;SDS011;51092;50.874;7.024;2022-07-29T05:20:27;10.32;;;2.42;;
30888;SDS011;51092;50.874;7.024;2022-07-29T05:21:30;13.25;;;3.05;;
30888;SDS011;51092;50.874;7.024;2022-07-29T05:22:33;7.05;;;2.67;;
30888;SDS011;51092;50.874;7.024;2022-07-29T05:23:35;8.85;;;2.63;;
30888;SDS011;51092;50.874;7.024;2022-07-29T05:24:38;6.90;;;2.75;;
30888;SDS011;51092;50.874;7.024;2022-07-29T05:25:39;7.18;;;2.45;;
30888;SDS011;51092;50.874;7.024;2022-07-29T05:26:42;10.77;;;2.53;;
30888;SDS011;51092;50.874;7.024;2022-07-29T05:27:44;8.13;;;2.70;;
30888;SDS011;51092;50.874;7.024;2022-07-29T05:28:46;5.97;;;2.08;;
30888;SDS011;51092;50.874;7.024;2022-07-29T05:29:48;12.82;;;2.58;;
30888;SDS011;51092;50.874;7.024;2022-07-29T05:30:50;12.43;;;2.85;;
30888;SDS011;51092;50.874;7.024;2022-07-29T05:31:52;6.38;;;2.63;;
30888;SDS011;51092;50.874;7.024;2022-07-29T05:32:54;8.90;;;2.50;;
30888;SDS011;51092;50.874;7.024;2022-07-29T05:33:56;6.68;;;2.42;;
30888;SDS011;51092;50.874;7.024;2022-07-29T05:34:58;9.02;;;2.90;;
30888;SDS011;51092;50.874;7.024;2022-07-29T05:36:00;7.95;;;3.28;;
30888;SDS011;51092;50.874;7.024;2022-07-29T05:37:02;11.38;;;2.33;;
30888;SDS011;51092;50.874;7.024;2022-07-29T05:38:05;6.10;;;2.30;;
30888;SDS011;51092;50.874;7.024;2022-07-29T05:39:07;8.82;;;2.60;;
30888;SDS011;51092;50.874;7.024;2022-07-29T05:40:09;11.20;;;2.10;;
30888;SDS011;51092;50.874;7.024;2022-07-29T05:41:12;18.65;;;2.80;;
30888;SDS011;51092;50.874;7.024;2022-07-29T05:42:13;8.18;;;2.33;;
30888;SDS011;51092;50.874;7.024;2022-07-29T05:43:16;10.65;;;2.85;;
30888;SDS011;51092;50.874;7.024;2022-07-29T05:44:18;7.30;;;2.70;;
30888;SDS011;51092;50.874;7.024;2022-07-29T05:45:20;6.50;;;2.17;;
30888;SDS011;51092;50.874;7.024;2022-07-29T05:46:22;6.57;;;2.00;;
30888;SDS011;51092;50.874;7.024;2022-07-29T05:47:25;10.80;;;2.30;;
30888;SDS011;51092;50.874;7.024;2022-07-29T05:48:27;9.02;;;2.75;;
30888;SDS011;51092;50.874;7.024;2022-07-29T05:49:30;4.63;;;2.40;;
30888;SDS011;51092;50.874;7.024;2022-07-29T05:50:31;10.90;;;2.40;;
30888;SDS011;51092;50.874;7.024;2022-07-29T05:51:34;6.43;;;2.10;;
30888;SDS011;51092;50.874;7.024;2022-07-29T05:52:36;8.35;;;2.92;;
30888;SDS011;51092;50.874;7.024;2022-07-29T05:53:39;6.80;;;2.20;;
30888;SDS011;51092;50.874;7.024;2022-07-29T05:54:41;10.68;;;2.60;;
30888;SDS011;51092;50.874;7.024;2022-07-29T05:55:45;20.08;;;3.13;;
30888;SDS011;51092;50.874;7.024;2022-07-29T05:56:47;10.98;;;2.67;;
30888;SDS011;51092;50.874;7.024;2022-07-29T05:57:51;5.82;;;2.38;;
30888;SDS011;51092;50.874;7.024;2022-07-29T05:58:53;11.07;;;2.47;;
30888;SDS011;51092;50.874;7.024;2022-07-29T05:59:55;6.13;;;2.38;;
30888;SDS011;51092;50.874;7.024;2022-07-29T06:00:56;5.85;;;2.40;;
30888;SDS011;51092;50.874;7.024;2022-07-29T06:01:59;9.10;;;2.13;;
30888;SDS011;51092;50.874;7.024;2022-07-29T06:03:00;11.02;;;2.90;;
30888;SDS011;51092;50.874;7.024;2022-07-29T06:04:03;7.70;;;2.30;;
30888;SDS011;51092;50.874;7.024;2022-07-29T06:05:04;9.82;;;2.28;;
30888;SDS011;51092;50.874;7.024;2022-07-29T06:06:08;8.70;;;2.70;;
30888;SDS011;51092;50.874;7.024;2022-07-29T06:07:09;7.13;;;2.25;;
30888;SDS011;51092;50.874;7.024;2022-07-29T06:08:12;9.88;;;2.50;;
30888;SDS011;51092;50.874;7.024;2022-07-29T06:09:15;14.05;;;2.80;;
30888;SDS011;51092;50.874;7.024;2022-07-29T06:10:17;12.88;;;2.38;;
30888;SDS011;51092;50.874;7.024;2022-07-29T06:11:19;13.18;;;2.35;;
30888;SDS011;51092;50.874;7.024;2022-07-29T06:12:20;9.18;;;3.00;;
30888;SDS011;51092;50.874;7.024;2022-07-29T06:13:22;16.20;;;3.03;;
30888;SDS011;51092;50.874;7.024;2022-07-29T06:14:24;9.77;;;2.47;;
30888;SDS011;51092;50.874;7.024;2022-07-29T06:15:27;8.45;;;2.20;;
30888;SDS011;51092;50.874;7.024;2022-07-29T06:16:28;5.32;;;2.30;;
30888;SDS011;51092;50.874;7.024;2022-07-29T06:17:31;7.22;;;2.35;;
30888;SDS011;51092;50.874;7.024;2022-07-29T06:18:33;11.43;;;2.80;;
30888;SDS011;51092;50.874;7.024;2022-07-29T06:19:35;5.18;;;2.25;;
30888;SDS011;51092;50.874;7.024;2022-07-29T06:20:37;13.57;;;3.10;;
30888;SDS011;51092;50.874;7.024;2022-07-29T06:21:41;9.40;;;2.25;;
30888;SDS011;51092;50.874;7.024;2022-07-29T06:22:42;10.40;;;2.58;;
30888;SDS011;51092;50.874;7.024;2022-07-29T06:23:44;9.35;;;2.38;;
30888;SDS011;51092;50.874;7.024;2022-07-29T06:24:47;9.27;;;2.33;;